Flight Track Log - Related Links

Times and Time Zones

All times are in EST time to prevent confusion due to time zone crossing. See the ASQ5745 flight status page for this flight to view local times or setup timezone preferences in your user account.


Time Position Orientation Groundspeed Altitude Reporting Facility
EST Latitude Longitude Course Direction KTS MPH feet Rate Location/Type
Tue 05:48:55 PM 39.0000 -77.4500 North 232 267 2,900  Level Potomac TRACON
Tue 05:51:18 PM 39.1722 -77.4469 North 273 314 10,100 2,874 Climbing Washington Center
Tue 05:53:16 PM 39.3347 -77.4511 359° North 273 314 15,400 2,221 Climbing Washington Center
Tue 05:54:00 PM 39.5510 -77.4500 North  Level FlightAware Approximate
Tue 05:54:19 PM 39.4264 -77.4536 359° North 295 339 16,800  Level Washington Center
Tue 05:55:17 PM 39.5283 -77.4561 359° North 332 382 17,600 1,232 Climbing Washington Center
Tue 05:56:50 PM 39.6989 -77.4575 360° North 390 449 19,900 1,490 Climbing New York Center
Tue 05:57:50 PM 39.8047 -77.4269 13° North 390 449 21,400 1,450 Climbing New York Center
Tue 05:58:50 PM 39.9053 -77.3472 31° Northeast 391 450 22,800 1,200 Climbing New York Center
Tue 05:59:50 PM 40.0094 -77.2703 29° Northeast 412 474 23,800 1,000 Climbing New York Center
Tue 06:00:50 PM 40.1189 -77.2153 21° North 424 488 24,800 950 Climbing New York Center
Tue 06:01:50 PM 40.2411 -77.1506 22° Northeast 424 488 25,700 700 Climbing New York Center
Tue 06:02:50 PM 40.3589 -77.0933 20° North 434 499 26,200 500 Climbing New York Center
Tue 06:03:50 PM 40.4769 -77.0331 21° North 440 506 26,700 500 Climbing New York Center
Tue 06:04:50 PM 40.5969 -76.9703 22° Northeast 451 519 27,200 500 Climbing New York Center
Tue 06:05:50 PM 40.7147 -76.9069 22° Northeast 451 519 27,700 500 Climbing New York Center
Tue 06:06:50 PM 40.8347 -76.8464 21° North 451 519 28,200 500 Climbing New York Center
Tue 06:07:50 PM 40.9544 -76.7828 22° Northeast 451 519 28,700 400 Climbing New York Center
Tue 06:08:50 PM 41.0722 -76.7217 21° North 451 519 29,000 150 Climbing New York Center
Tue 06:09:50 PM 41.1942 -76.6578 22° Northeast 451 519 29,000 -50 Level New York Center
Tue 06:10:50 PM 41.3183 -76.5914 22° Northeast 461 531 28,900 -550 Descending New York Center
Tue 06:11:50 PM 41.4422 -76.5300 20° North 467 537 27,900 -950 Descending New York Center
Tue 06:12:50 PM 41.5664 -76.4603 23° Northeast 467 537 27,000 -333 Descending New York Center
Tue 06:14:32 PM 41.7611 -76.3536 22° Northeast 474 545 27,000  Level Boston Center
Tue 06:15:33 PM 41.8831 -76.2883 22° Northeast 472 543 27,000 -683 Level Boston Center
Tue 06:16:35 PM 42.0089 -76.2200 22° Northeast 480 552 25,600 -1,366 Descending Boston Center
Tue 06:17:36 PM 42.1292 -76.1514 23° Northeast 478 550 24,200 -787 Descending Boston Center
Tue 06:18:37 PM 42.2064 -75.9975 56° Northeast 499 574 24,000 -98 Descending Boston Center
Tue 06:19:39 PM 42.2672 -75.8275 64° Northeast 504 580 24,000  Level Boston Center
Tue 06:20:40 PM 42.3297 -75.6194 68° East 501 577 24,000 -885 Level Boston Center
Tue 06:21:41 PM 42.3722 -75.4378 72° East 507 583 22,200 -1,918 Descending Boston Center
Tue 06:22:42 PM 42.4144 -75.2594 72° East 503 579 20,100 -2,049 Descending Boston Center
Tue 06:23:44 PM 42.4553 -75.0886 72° East 485 558 18,000 -1,854 Descending Boston Center
Tue 06:24:45 PM 42.4942 -74.9239 72° East 467 537 16,300 -1,889 Descending Boston Center
Tue 06:25:32 PM 42.5264 -74.7800 73° East 453 521 14,600 -2,164 Descending Boston Center
Tue 06:25:46 PM 42.5347 -74.7403 74° East 457 526 14,100 -1,869 Descending Boston Center
Tue 06:26:33 PM 42.5633 -74.6211 72° East 444 511 12,700 -1,839 Descending Boston Center
Tue 06:26:48 PM 42.5722 -74.5828 73° East 441 507 12,200 -1,700 Descending Boston Center
Tue 06:27:33 PM 42.5997 -74.4650 72° East 433 498 11,000 -1,180 Descending Boston Center
Tue 06:27:49 PM 42.6089 -74.4150 76° East 432 497 11,000 -295 Level Boston Center
Tue 06:28:34 PM 42.5967 -74.3211 100° East 365 420 10,700 -590 Descending Boston Center
Tue 06:28:50 PM 42.5947 -74.2794 94° East 356 410 10,400 -1,967 Descending Boston Center
Tue 06:29:35 PM 42.5831 -74.1883 100° East 315 362 8,700 -2,419 Descending Boston Center
Tue 06:29:52 PM 42.5817 -74.1575 93° East 329 379 7,900 -2,462 Descending Boston Center
Tue 06:30:53 PM 42.5694 -74.0347 98° East 309 356 5,500 -2,192 Descending Boston Center
Tue 06:31:36 PM 42.5667 -73.9647 93° East 277 319 4,100 -1,770 Descending Boston Center
Tue 06:31:54 PM 42.5675 -73.9311 88° East 276 318 3,700 -1,279 Descending Boston Center
Tue 06:32:37 PM 42.5672 -73.8689 90° East 236 272 2,800 -1,258 Descending Boston Center
Tue 06:32:56 PM 42.5703 -73.8417 81° East 241 277 2,400 -787 Descending Boston Center
Tue 06:33:38 PM 42.5997 -73.8100 38° Northeast 203 234 2,000 -492 Descending Boston Center
Tue 06:33:57 PM 42.6219 -73.8011 16° North 205 236 1,900 -100 Descending Boston Center
Tue 06:34:38 PM 42.6506 -73.8011 360° North 158 182 1,900 -98 Level Boston Center
Tue 06:34:58 PM 42.6650 -73.8011 360° North 159 183 1,800 -590 Descending Boston Center
Tue 06:35:39 PM 42.6892 -73.8025 358° North 124 143 1,300 -689 Descending Boston Center
Tue 06:35:59 PM 42.7022 -73.8028 359° North 137 158 1,100 -787 Descending Boston Center
Tue 06:36:40 PM 42.7256 -73.8031 359° North 134 154 500 -871 Descending Boston Center
Tue 06:37:01 PM 42.7417 -73.8044 356° North 135 155 200 -857 Descending Boston Center

Login

Don't have an account? Register now (free) for customized features, flight alerts, and more!